This is the latest recevied weather packets stored in our database for station/object WB3IGR. If no packets are shown the sender has not sent any weather packets the latest 10 day(s).
| Time | Temp. | Humidity | Pressure | Rain* | Wind** | Luminosity | Snow |
|---|---|---|---|---|---|---|---|
| 1777589904 | 12.22° C | 77% | 1011.7 hPa | 0 mm | - | 40 W/m² | - |
| 1777589594 | 12.78° C | 76% | 1011.5 hPa | 0 mm | - | 48 W/m² | - |
| 1777589291 | 12.78° C | 77% | 1011.5 hPa | 0 mm | - | 55 W/m² | - |
| 1777588988 | 12.78° C | 75% | 1011.7 hPa | 0 mm | - | 69 W/m² | - |
| 1777588684 | 12.78° C | 75% | 1011.4 hPa | 0 mm | - | 78 W/m² | - |
| 1777588380 | 12.78° C | 74% | 1011.4 hPa | 0 mm | - | 115 W/m² | - |
| 1777588076 | 12.78° C | 74% | 1011.5 hPa | 0 mm | - | 48 W/m² | - |
| 1777587767 | 12.78° C | 74% | 1011.3 hPa | 0 mm | - | 41 W/m² | - |
| 1777587465 | 13.33° C | 75% | 1011.3 hPa | 0 mm | - | 58 W/m² | - |
| 1777587163 | 13.89° C | 75% | 1011.1 hPa | 0 mm | - | 104 W/m² | - |
| 1777586858 | 13.89° C | 74% | 1011.2 hPa | 0 mm | - | 100 W/m² | - |
| 1777586554 | 13.89° C | 73% | 1011 hPa | 0 mm | - | 227 W/m² | - |
| 1777586250 | 14.44° C | 74% | 1011 hPa | 0 mm | - | 150 W/m² | - |
| 1777585947 | 15.56° C | 71% | 1011 hPa | 0 mm | - | 182 W/m² | - |
| 1777585642 | 15.56° C | 71% | 1010.8 hPa | 0 mm | - | 381 W/m² | - |
| 1777585338 | 15° C | 74% | 1010.6 hPa | 0 mm | - | 375 W/m² | - |
| 1777585032 | 15° C | 73% | 1010.6 hPa | 0 mm | - | 414 W/m² | - |
| 1777584729 | 13.89° C | 76% | 1010.5 hPa | 0 mm | - | 315 W/m² | - |
| 1777584427 | 13.89° C | 75% | 1010.7 hPa | 0 mm | - | 234 W/m² | - |
| 1777584123 | 13.33° C | 80% | 1010.5 hPa | 0 mm | - | 272 W/m² | - |
| 1777583821 | 12.78° C | 82% | 1010.4 hPa | 0 mm | - | 140 W/m² | - |
| 1777583517 | 12.78° C | 82% | 1010.5 hPa | 0 mm | - | 118 W/m² | - |
| 1777583212 | 12.78° C | 80% | 1010.3 hPa | 0 mm | - | 95 W/m² | - |
| 1777582907 | 12.78° C | 79% | 1010.2 hPa | 0 mm | - | 95 W/m² | - |
| 1777582604 | 13.33° C | 78% | 1010.4 hPa | 0 mm | - | 81 W/m² | - |
* Rain latest hour (hover to see other rain measurements)
** Current wind speed in m/s (hover to see current wind gust speed)